createdAt,value
2018-07-02T00:00:38.997Z,967.00
2018-07-02T00:01:38.920Z,967.18
2018-07-02T00:02:38.873Z,967.06
2018-07-02T00:03:38.860Z,967.06
2018-07-02T00:04:38.779Z,967.02
2018-07-02T00:05:38.733Z,967.06
2018-07-02T00:06:38.686Z,967.03
2018-07-02T00:07:38.674Z,967.09
2018-07-02T00:08:38.593Z,966.99
2018-07-02T00:09:38.548Z,967.02
2018-07-02T00:10:38.499Z,967.07
2018-07-02T00:11:38.453Z,967.06
2018-07-02T00:12:38.437Z,967.07
2018-07-02T00:13:38.359Z,967.01
2018-07-02T00:14:38.313Z,967.02
2018-07-02T00:15:38.268Z,967.07
2018-07-02T00:16:38.220Z,967.02
2018-07-02T00:17:38.209Z,967.07
2018-07-02T00:18:38.125Z,966.94
2018-07-02T00:19:38.113Z,967.01
2018-07-02T00:20:38.035Z,966.98
2018-07-02T00:21:37.983Z,967.03
2018-07-02T00:22:37.986Z,967.00
2018-07-02T00:23:37.890Z,966.96
2018-07-02T00:24:37.846Z,966.98
2018-07-02T00:25:37.800Z,966.96
2018-07-02T00:26:37.750Z,966.97
2018-07-02T00:27:37.741Z,966.96
2018-07-02T00:28:37.656Z,966.95
2018-07-02T00:29:37.611Z,966.96
2018-07-02T00:30:37.595Z,966.95
2018-07-02T00:31:37.518Z,966.95
2018-07-02T00:32:37.474Z,966.99
2018-07-02T00:33:37.424Z,966.97
2018-07-02T00:34:37.375Z,966.93
2018-07-02T00:35:37.368Z,966.97
2018-07-02T00:36:37.282Z,967.04
2018-07-02T00:37:37.235Z,967.01
2018-07-02T00:38:37.190Z,966.99
2018-07-02T00:39:37.141Z,967.04
2018-07-02T00:40:37.126Z,966.96
2018-07-02T00:41:37.055Z,967.05
2018-07-02T00:42:37.050Z,967.06
2018-07-02T00:43:36.958Z,967.03
2018-07-02T00:44:36.911Z,967.01
2018-07-02T00:45:36.892Z,966.97
2018-07-02T00:46:36.846Z,967.01
2018-07-02T00:47:36.766Z,967.01
2018-07-02T00:48:36.719Z,966.99
2018-07-02T00:49:36.671Z,966.97
2018-07-02T00:50:36.658Z,967.06
2018-07-02T00:51:36.612Z,966.91
2018-07-02T00:52:36.566Z,966.91
2018-07-02T00:53:36.487Z,966.88
2018-07-02T00:54:36.437Z,966.95
2018-07-02T00:55:36.391Z,966.90
2018-07-02T00:56:36.344Z,966.88
2018-07-02T00:57:36.328Z,966.89
2018-07-02T00:58:36.250Z,966.95
2018-07-02T00:59:36.213Z,966.88
2018-07-02T01:00:36.160Z,966.89
2018-07-02T01:01:36.110Z,966.87
2018-07-02T01:02:36.094Z,966.88
2018-07-02T01:03:36.016Z,966.85
2018-07-02T01:04:35.967Z,966.90
2018-07-02T01:05:35.921Z,966.88
2018-07-02T01:06:35.877Z,966.79
2018-07-02T01:07:35.864Z,966.91
2018-07-02T01:08:35.788Z,966.88
2018-07-02T01:09:35.736Z,966.86
2018-07-02T01:10:35.689Z,966.87
2018-07-02T01:11:35.640Z,966.89
2018-07-02T01:12:35.627Z,966.85
2018-07-02T01:13:35.582Z,966.88
2018-07-02T01:14:35.501Z,966.89
2018-07-02T01:15:35.456Z,966.94
2018-07-02T01:16:35.405Z,966.97
2018-07-02T01:17:35.391Z,966.96
2018-07-02T01:18:35.343Z,966.95
2018-07-02T01:19:35.308Z,967.02
2018-07-02T01:20:35.215Z,967.01
2018-07-02T01:21:35.166Z,966.90
2018-07-02T01:22:35.127Z,966.90
2018-07-02T01:23:35.076Z,966.93
2018-07-02T01:24:35.051Z,966.89
2018-07-02T01:25:35.012Z,966.95
2018-07-02T01:26:34.933Z,966.95
2018-07-02T01:27:34.886Z,966.92
2018-07-02T01:28:34.840Z,966.95
2018-07-02T01:29:34.792Z,966.89
2018-07-02T01:30:34.777Z,966.90
2018-07-02T01:31:34.698Z,966.81
2018-07-02T01:32:34.680Z,966.83
2018-07-02T01:33:34.601Z,966.78
2018-07-02T01:34:34.557Z,966.83
2018-07-02T01:35:34.533Z,966.82
2018-07-02T01:36:34.467Z,966.91
2018-07-02T01:37:34.443Z,966.75
2018-07-02T01:38:34.366Z,966.78
2018-07-02T01:39:35.421Z,966.78
2018-07-02T01:40:34.325Z,966.75
2018-07-02T01:41:34.224Z,966.71
2018-07-02T01:42:34.178Z,966.74
2018-07-02T01:43:34.132Z,966.71
2018-07-02T01:44:34.082Z,966.67
2018-07-02T01:45:34.073Z,966.69
2018-07-02T01:46:33.998Z,966.70
2018-07-02T01:47:33.944Z,966.75
2018-07-02T01:48:33.903Z,966.67
2018-07-02T01:49:33.850Z,966.64
2018-07-02T01:50:33.832Z,966.68
2018-07-02T01:51:33.755Z,966.77
2018-07-02T01:52:33.705Z,966.68
2018-07-02T01:53:33.657Z,966.68
2018-07-02T01:54:33.611Z,966.66
2018-07-02T01:55:33.598Z,966.66
2018-07-02T01:56:33.548Z,966.67
2018-07-02T01:57:33.468Z,966.63
2018-07-02T01:58:33.426Z,966.58
2018-07-02T01:59:33.375Z,966.59
2018-07-02T02:00:33.329Z,966.67
2018-07-02T02:01:33.317Z,966.65
2018-07-02T02:02:33.275Z,966.65
2018-07-02T02:03:33.188Z,966.66
2018-07-02T02:04:33.139Z,966.63
2018-07-02T02:05:33.091Z,966.64
2018-07-02T02:06:33.045Z,966.60
2018-07-02T02:07:33.031Z,966.62
2018-07-02T02:08:32.985Z,966.60
2018-07-02T02:09:32.901Z,966.65
2018-07-02T02:10:32.856Z,966.59
2018-07-02T02:11:32.812Z,966.59
2018-07-02T02:12:32.761Z,966.61
2018-07-02T02:13:32.758Z,966.61
2018-07-02T02:14:32.666Z,966.63
2018-07-02T02:15:32.619Z,966.62
2018-07-02T02:16:32.570Z,966.61
2018-07-02T02:17:32.524Z,966.61
2018-07-02T02:18:32.510Z,966.69
2018-07-02T02:19:32.431Z,966.63
2018-07-02T02:20:32.384Z,966.59
2018-07-02T02:21:32.343Z,966.63
2018-07-02T02:22:32.287Z,966.66
2018-07-02T02:23:32.276Z,966.57
2018-07-02T02:24:32.194Z,966.58
2018-07-02T02:25:32.178Z,966.62
2018-07-02T02:26:32.102Z,966.63
2018-07-02T02:27:32.052Z,966.63
2018-07-02T02:28:32.037Z,966.62
2018-07-02T02:29:31.957Z,966.79
2018-07-02T02:30:31.907Z,966.75
2018-07-02T02:31:31.866Z,966.68
2018-07-02T02:32:31.815Z,966.69
2018-07-02T02:33:31.806Z,966.68
2018-07-02T02:34:31.720Z,966.73
2018-07-02T02:35:31.672Z,966.71
2018-07-02T02:36:31.623Z,966.66
2018-07-02T02:37:31.580Z,966.79
2018-07-02T02:38:31.574Z,966.70
2018-07-02T02:39:31.487Z,966.72
2018-07-02T02:40:31.433Z,966.71
2018-07-02T02:41:31.389Z,966.73
2018-07-02T02:42:31.340Z,966.74
2018-07-02T02:43:31.386Z,966.69
2018-07-02T02:44:31.246Z,966.59
2018-07-02T02:45:31.201Z,966.66
2018-07-02T02:46:31.150Z,966.71
2018-07-02T02:47:31.136Z,966.67
2018-07-02T02:48:31.059Z,966.69
2018-07-02T02:49:31.051Z,966.77
2018-07-02T02:50:30.965Z,966.80
2018-07-02T02:51:30.910Z,966.69
2018-07-02T02:52:30.866Z,966.75
2018-07-02T02:53:30.820Z,966.74
2018-07-02T02:54:30.809Z,966.76
2018-07-02T02:55:30.722Z,966.73
2018-07-02T02:56:30.675Z,966.73
2018-07-02T02:57:30.630Z,966.68
2018-07-02T02:58:30.590Z,966.81
2018-07-02T02:59:30.565Z,966.74
2018-07-02T03:00:30.483Z,966.80
2018-07-02T03:01:30.438Z,966.75
2018-07-02T03:02:30.422Z,966.80
2018-07-02T03:03:30.344Z,966.84
2018-07-02T03:04:30.298Z,966.81
2018-07-02T03:05:30.247Z,966.88
2018-07-02T03:06:30.201Z,966.91
2018-07-02T03:07:30.188Z,966.89
2018-07-02T03:08:30.134Z,966.87
2018-07-02T03:09:30.056Z,966.85
2018-07-02T03:10:30.009Z,966.84
2018-07-02T03:11:29.963Z,966.89
2018-07-02T03:12:29.915Z,966.85
2018-07-02T03:13:29.900Z,966.83
2018-07-02T03:14:29.819Z,966.85
2018-07-02T03:15:29.773Z,966.85
2018-07-02T03:16:29.723Z,966.84
2018-07-02T03:17:29.675Z,966.85
2018-07-02T03:18:29.661Z,966.83
2018-07-02T03:19:29.584Z,966.81
2018-07-02T03:20:29.622Z,966.81
2018-07-02T03:21:29.489Z,966.81
2018-07-02T03:22:29.438Z,966.78
2018-07-02T03:23:29.425Z,966.79
2018-07-02T03:24:29.344Z,966.83
2018-07-02T03:25:29.294Z,966.85
2018-07-02T03:26:29.264Z,966.77
2018-07-02T03:27:29.201Z,966.79
2018-07-02T03:28:29.185Z,966.79
2018-07-02T03:29:29.146Z,966.81
2018-07-02T03:30:29.059Z,966.77
2018-07-02T03:31:29.025Z,966.78
2018-07-02T03:32:28.970Z,966.77
2018-07-02T03:33:28.915Z,966.70
2018-07-02T03:34:28.909Z,966.71
2018-07-02T03:35:28.818Z,966.70
2018-07-02T03:36:28.773Z,966.70
2018-07-02T03:37:28.722Z,966.73
2018-07-02T03:38:28.680Z,966.68
2018-07-02T03:39:28.659Z,966.73
2018-07-02T03:40:28.579Z,966.74
2018-07-02T03:41:28.567Z,966.76
2018-07-02T03:42:28.489Z,966.75
2018-07-02T03:43:28.447Z,966.73
2018-07-02T03:44:28.395Z,966.72
2018-07-02T03:45:28.394Z,966.69
2018-07-02T03:46:28.296Z,966.70
2018-07-02T03:47:28.248Z,966.73
2018-07-02T03:48:28.200Z,966.73
2018-07-02T03:49:28.152Z,966.67
2018-07-02T03:50:28.138Z,966.68
2018-07-02T03:51:28.060Z,966.66
2018-07-02T03:52:28.043Z,966.67
2018-07-02T03:53:27.962Z,966.67
2018-07-02T03:54:27.917Z,966.70
2018-07-02T03:55:27.871Z,966.72
2018-07-02T03:56:27.823Z,966.72
2018-07-02T03:57:27.819Z,966.72
2018-07-02T03:58:27.724Z,966.72
2018-07-02T03:59:27.679Z,966.76
2018-07-02T04:00:27.635Z,966.75
2018-07-02T04:01:27.583Z,966.80
2018-07-02T04:02:27.579Z,966.82
2018-07-02T04:03:27.488Z,966.80
2018-07-02T04:04:27.440Z,966.86
2018-07-02T04:05:27.393Z,966.84
2018-07-02T04:06:27.346Z,966.86
2018-07-02T04:07:27.332Z,966.85
2018-07-02T04:08:27.249Z,966.86
2018-07-02T04:09:27.207Z,966.83
2018-07-02T04:10:27.163Z,966.84
2018-07-02T04:11:27.109Z,966.79
2018-07-02T04:12:27.106Z,966.80
2018-07-02T04:13:27.046Z,966.82
2018-07-02T04:14:26.965Z,966.72
2018-07-02T04:15:26.918Z,966.78
2018-07-02T04:16:26.869Z,966.76
2018-07-02T04:17:26.854Z,966.74
2018-07-02T04:18:26.804Z,966.76
2018-07-02T04:19:26.728Z,966.77
2018-07-02T04:20:26.681Z,966.77
2018-07-02T04:21:26.631Z,966.79
2018-07-02T04:22:26.584Z,966.79
2018-07-02T04:23:26.571Z,966.81
2018-07-02T04:24:26.495Z,966.79
2018-07-02T04:25:26.445Z,966.80
2018-07-02T04:26:26.395Z,966.77
2018-07-02T04:27:26.348Z,966.77
2018-07-02T04:28:26.335Z,966.80
2018-07-02T04:29:26.253Z,966.80
2018-07-02T04:30:26.209Z,966.84
2018-07-02T04:31:26.160Z,966.80
2018-07-02T04:32:26.112Z,966.82
2018-07-02T04:33:26.105Z,966.83
2018-07-02T04:34:26.021Z,966.82
2018-07-02T04:35:25.971Z,966.78
2018-07-02T04:36:25.924Z,966.83
2018-07-02T04:37:25.875Z,966.78
2018-07-02T04:38:25.858Z,966.78
2018-07-02T04:39:25.785Z,966.80
2018-07-02T04:40:25.771Z,966.75
2018-07-02T04:41:25.685Z,966.80
2018-07-02T04:42:25.650Z,966.77
2018-07-02T04:43:25.593Z,966.78
2018-07-02T04:44:25.574Z,966.85
2018-07-02T04:45:25.499Z,966.87
2018-07-02T04:46:25.454Z,966.87
2018-07-02T04:47:26.103Z,966.86
2018-07-02T04:48:25.357Z,966.89
2018-07-02T04:49:25.338Z,966.91
2018-07-02T04:50:25.260Z,966.95
2018-07-02T04:51:25.212Z,966.96
2018-07-02T04:52:25.164Z,966.97
2018-07-02T04:53:25.165Z,966.98
2018-07-02T04:54:25.070Z,966.99
2018-07-02T04:55:25.023Z,966.97
2018-07-02T04:56:24.977Z,967.00
2018-07-02T04:57:24.925Z,967.04
2018-07-02T04:58:24.924Z,967.00
2018-07-02T04:59:24.832Z,967.04
2018-07-02T05:00:24.788Z,967.01
2018-07-02T05:01:24.740Z,966.99
2018-07-02T05:02:24.691Z,967.00
2018-07-02T05:03:24.678Z,967.05
2018-07-02T05:04:24.597Z,967.04
2018-07-02T05:05:24.595Z,967.07
2018-07-02T05:06:24.499Z,967.05
2018-07-02T05:07:24.455Z,966.99
2018-07-02T05:08:24.403Z,966.98
2018-07-02T05:09:24.360Z,967.06
2018-07-02T05:10:24.350Z,967.06
2018-07-02T05:11:24.265Z,967.09
2018-07-02T05:12:24.216Z,967.12
2018-07-02T05:13:24.171Z,967.10
2018-07-02T05:14:24.122Z,967.13
2018-07-02T05:15:24.107Z,967.18
2018-07-02T05:16:24.027Z,967.15
2018-07-02T05:17:23.981Z,967.11
2018-07-02T05:18:23.965Z,967.10
2018-07-02T05:19:23.887Z,967.09
2018-07-02T05:20:23.839Z,967.09
2018-07-02T05:21:23.793Z,967.06
2018-07-02T05:22:23.774Z,967.01
2018-07-02T05:23:23.694Z,967.00
2018-07-02T05:24:23.666Z,967.00
2018-07-02T05:25:23.600Z,966.93
2018-07-02T05:26:23.589Z,966.94
2018-07-02T05:27:23.509Z,966.96
2018-07-02T05:28:23.460Z,966.97
2018-07-02T05:29:23.442Z,967.00
2018-07-02T05:30:23.367Z,966.98
2018-07-02T05:31:23.326Z,967.01
2018-07-02T05:32:23.270Z,967.02
2018-07-02T05:33:23.254Z,967.03
2018-07-02T05:34:23.176Z,967.03
2018-07-02T05:35:23.159Z,967.03
2018-07-02T05:36:23.081Z,967.05
2018-07-02T05:37:23.030Z,967.05
2018-07-02T05:38:22.987Z,967.08
2018-07-02T05:39:22.944Z,967.09
2018-07-02T05:40:22.926Z,967.07
2018-07-02T05:41:22.846Z,967.11
2018-07-02T05:42:22.800Z,967.16
2018-07-02T05:43:22.781Z,967.11
2018-07-02T05:44:22.733Z,967.10
2018-07-02T05:45:22.655Z,967.08
2018-07-02T05:46:22.610Z,967.09
2018-07-02T05:47:22.563Z,967.09
2018-07-02T05:48:22.555Z,967.07
2018-07-02T05:49:22.470Z,967.10
2018-07-02T05:50:22.419Z,967.12
2018-07-02T05:51:22.373Z,967.07
2018-07-02T05:52:22.325Z,967.07
2018-07-02T05:53:22.308Z,967.10
2018-07-02T05:54:22.232Z,967.10
2018-07-02T05:55:22.185Z,967.14
2018-07-02T05:56:22.170Z,967.03
2018-07-02T05:57:22.090Z,967.04
2018-07-02T05:58:22.041Z,966.96
2018-07-02T05:59:22.000Z,967.00
2018-07-02T06:00:22.062Z,966.98
2018-07-02T06:01:21.929Z,966.96
2018-07-02T06:02:21.854Z,966.93
2018-07-02T06:03:21.807Z,966.98
2018-07-02T06:04:21.760Z,967.03
2018-07-02T06:05:21.744Z,967.00
2018-07-02T06:06:21.664Z,967.00
2018-07-02T06:07:21.624Z,967.00
2018-07-02T06:08:21.776Z,967.02
2018-07-02T06:09:21.526Z,967.01
2018-07-02T06:10:21.517Z,966.99
2018-07-02T06:11:21.432Z,966.96
2018-07-02T06:12:21.387Z,966.99
2018-07-02T06:13:21.335Z,966.96
2018-07-02T06:14:21.289Z,966.93
2018-07-02T06:15:21.293Z,966.96
2018-07-02T06:16:21.204Z,966.92
2018-07-02T06:17:21.149Z,966.95
2018-07-02T06:18:21.102Z,966.96
2018-07-02T06:19:21.056Z,966.91
2018-07-02T06:20:21.051Z,966.91
2018-07-02T06:21:20.962Z,966.96
2018-07-02T06:22:20.919Z,966.90
2018-07-02T06:23:20.869Z,966.92
2018-07-02T06:24:20.819Z,966.93
2018-07-02T06:25:20.836Z,966.97
2018-07-02T06:26:20.731Z,966.96
2018-07-02T06:27:20.685Z,967.03
2018-07-02T06:28:20.633Z,966.95
2018-07-02T06:29:20.589Z,966.94
2018-07-02T06:30:20.599Z,966.99
2018-07-02T06:31:20.493Z,966.99
2018-07-02T06:32:20.445Z,967.02
2018-07-02T06:33:20.402Z,966.97
2018-07-02T06:34:20.354Z,966.99
2018-07-02T06:35:20.346Z,967.03
2018-07-02T06:36:20.259Z,966.94
2018-07-02T06:37:20.216Z,966.93
2018-07-02T06:38:20.173Z,967.09
2018-07-02T06:39:20.124Z,966.98
2018-07-02T06:40:20.112Z,966.98
2018-07-02T06:41:20.031Z,966.92
2018-07-02T06:42:20.029Z,966.93
2018-07-02T06:43:19.939Z,966.99
2018-07-02T06:44:19.889Z,966.93
2018-07-02T06:45:19.842Z,966.95
2018-07-02T06:46:19.799Z,966.99
2018-07-02T06:47:19.794Z,966.96
2018-07-02T06:48:19.706Z,966.98
2018-07-02T06:49:19.661Z,966.98
2018-07-02T06:50:19.613Z,967.00
2018-07-02T06:51:19.575Z,966.99
2018-07-02T06:52:19.552Z,967.00
2018-07-02T06:53:19.522Z,967.04
2018-07-02T06:54:19.429Z,966.99
2018-07-02T06:55:19.382Z,967.00
2018-07-02T06:56:19.334Z,966.98
2018-07-02T06:57:19.289Z,967.04
2018-07-02T06:58:19.283Z,967.00
2018-07-02T06:59:19.197Z,967.04
2018-07-02T07:00:19.150Z,967.01
2018-07-02T07:01:19.113Z,966.99
2018-07-02T07:02:19.059Z,967.06
2018-07-02T07:03:19.046Z,967.03
2018-07-02T07:04:18.963Z,967.04
2018-07-02T07:05:18.918Z,967.09
2018-07-02T07:06:18.909Z,967.07
2018-07-02T07:07:18.829Z,967.06
2018-07-02T07:08:18.784Z,967.06
2018-07-02T07:09:18.739Z,967.12
2018-07-02T07:10:18.722Z,967.07
2018-07-02T07:11:18.645Z,967.07
2018-07-02T07:12:18.598Z,967.04
2018-07-02T07:13:18.589Z,967.10
2018-07-02T07:14:18.513Z,967.09
2018-07-02T07:15:18.462Z,967.06
2018-07-02T07:16:18.461Z,967.08
2018-07-02T07:17:18.376Z,967.08
2018-07-02T07:18:18.323Z,967.10
2018-07-02T07:19:18.279Z,967.04
2018-07-02T07:20:18.232Z,967.05
2018-07-02T07:21:18.210Z,967.04
2018-07-02T07:22:18.140Z,967.08
2018-07-02T07:23:18.093Z,967.08
2018-07-02T07:24:18.081Z,967.12
2018-07-02T07:25:18.007Z,967.05
2018-07-02T07:26:17.957Z,967.06
2018-07-02T07:27:17.908Z,967.09
2018-07-02T07:28:17.901Z,967.09
2018-07-02T07:29:17.826Z,967.11
2018-07-02T07:30:17.782Z,967.13
2018-07-02T07:31:17.761Z,967.11
2018-07-02T07:32:17.680Z,967.13
2018-07-02T07:33:17.637Z,967.10
2018-07-02T07:34:17.594Z,967.12
2018-07-02T07:35:17.579Z,967.09
2018-07-02T07:36:17.497Z,967.12
2018-07-02T07:37:17.494Z,967.07
2018-07-02T07:38:17.409Z,967.11
2018-07-02T07:39:17.364Z,967.09
2018-07-02T07:40:17.355Z,967.11
2018-07-02T07:41:17.272Z,967.16
2018-07-02T07:42:17.260Z,967.14
2018-07-02T07:43:17.191Z,967.14
2018-07-02T07:44:17.134Z,967.18
2018-07-02T07:45:17.093Z,967.16
2018-07-02T07:46:17.079Z,967.32
2018-07-02T07:47:16.998Z,967.18
2018-07-02T07:48:16.956Z,967.15
2018-07-02T07:49:16.911Z,967.18
2018-07-02T07:50:16.868Z,967.18
2018-07-02T07:51:16.846Z,967.19
2018-07-02T07:52:16.778Z,967.15
2018-07-02T07:53:16.826Z,967.20
2018-07-02T07:54:16.684Z,967.19
2018-07-02T07:55:16.639Z,967.21
2018-07-02T07:56:16.597Z,967.21
2018-07-02T07:57:16.549Z,967.17
2018-07-02T07:58:16.534Z,967.21
2018-07-02T07:59:16.460Z,967.23
2018-07-02T08:00:16.412Z,967.19
2018-07-02T08:01:16.399Z,967.24
2018-07-02T08:02:16.323Z,967.23
2018-07-02T08:03:16.311Z,967.23
2018-07-02T08:04:16.278Z,967.22
2018-07-02T08:05:16.247Z,967.22
2018-07-02T08:06:16.144Z,967.25
2018-07-02T08:07:16.106Z,967.29
2018-07-02T08:08:16.057Z,967.24
2018-07-02T08:09:16.045Z,967.28
2018-07-02T08:10:15.968Z,967.32
2018-07-02T08:11:15.926Z,967.30
2018-07-02T08:12:15.875Z,967.26
2018-07-02T08:13:15.863Z,967.28
2018-07-02T08:14:15.787Z,967.30
2018-07-02T08:15:15.743Z,967.24
2018-07-02T08:16:15.698Z,967.25
2018-07-02T08:17:15.655Z,967.25
2018-07-02T08:18:15.646Z,967.26
2018-07-02T08:19:15.607Z,967.27
2018-07-02T08:20:15.521Z,967.27
2018-07-02T08:21:15.508Z,967.27
2018-07-02T08:22:15.433Z,967.30
2018-07-02T08:23:15.393Z,967.28
2018-07-02T08:24:15.343Z,967.29
2018-07-02T08:25:15.303Z,967.34
2018-07-02T08:26:15.291Z,967.33
2018-07-02T08:27:15.326Z,967.30
2018-07-02T08:28:15.164Z,967.28
2018-07-02T08:29:15.121Z,967.28
2018-07-02T08:30:15.084Z,967.29
2018-07-02T08:31:15.073Z,967.28
2018-07-02T08:32:14.991Z,967.31
2018-07-02T08:33:14.951Z,967.36
2018-07-02T08:34:14.943Z,967.33
2018-07-02T08:35:14.864Z,967.37
2018-07-02T08:36:14.818Z,967.33
2018-07-02T08:37:14.775Z,967.36
2018-07-02T08:38:14.729Z,967.41
2018-07-02T08:39:14.715Z,967.37
2018-07-02T08:40:14.640Z,967.35
2018-07-02T08:41:14.598Z,967.31
2018-07-02T08:42:14.556Z,967.30
2018-07-02T08:43:14.523Z,967.34
2018-07-02T08:44:14.519Z,967.30
2018-07-02T08:45:14.423Z,967.39
2018-07-02T08:46:14.383Z,967.37
2018-07-02T08:47:14.337Z,967.42
2018-07-02T08:48:14.290Z,967.45
2018-07-02T08:49:14.281Z,967.40
2018-07-02T08:50:14.207Z,967.33
2018-07-02T08:51:14.165Z,967.36
2018-07-02T08:52:14.121Z,967.39
2018-07-02T08:53:14.109Z,967.36
2018-07-02T08:54:14.039Z,967.37
2018-07-02T08:55:13.993Z,967.38
2018-07-02T08:56:13.991Z,967.34
2018-07-02T08:57:13.910Z,967.33
2018-07-02T08:58:13.883Z,967.38
2018-07-02T08:59:13.821Z,967.33
2018-07-02T09:00:13.777Z,967.35
2018-07-02T09:01:13.764Z,967.36
2018-07-02T09:02:13.726Z,967.35
2018-07-02T09:03:13.649Z,967.35
2018-07-02T09:04:13.607Z,967.38
2018-07-02T09:05:13.562Z,967.36
2018-07-02T09:06:13.523Z,967.38
2018-07-02T09:07:13.520Z,967.35
2018-07-02T09:08:13.444Z,967.37
2018-07-02T09:09:13.397Z,967.42
2018-07-02T09:10:13.356Z,967.41
2018-07-02T09:11:13.312Z,967.40
2018-07-02T09:12:13.304Z,967.40
2018-07-02T09:13:13.271Z,967.41
2018-07-02T09:14:13.187Z,967.39
2018-07-02T09:15:13.149Z,967.39
2018-07-02T09:16:13.104Z,967.32
2018-07-02T09:17:13.064Z,967.27
2018-07-02T09:18:13.052Z,967.30
2018-07-02T09:19:12.980Z,967.32
2018-07-02T09:20:12.943Z,967.29
2018-07-02T09:21:12.895Z,967.28
2018-07-02T09:22:12.857Z,967.29
2018-07-02T09:23:12.846Z,967.24
2018-07-02T09:24:12.809Z,967.19
2018-07-02T09:25:12.754Z,967.22
2018-07-02T09:26:12.738Z,967.23
2018-07-02T09:27:12.649Z,967.20
2018-07-02T09:28:12.640Z,967.19
2018-07-02T09:29:12.598Z,967.24
2018-07-02T09:30:12.530Z,967.18
2018-07-02T09:31:12.486Z,967.18
2018-07-02T09:32:12.591Z,967.19
2018-07-02T09:33:12.437Z,967.22
2018-07-02T09:34:12.370Z,967.26
2018-07-02T09:35:12.324Z,967.23
2018-07-02T09:36:12.281Z,967.22
2018-07-02T09:37:12.241Z,967.24
2018-07-02T09:38:12.235Z,967.19
2018-07-02T09:39:12.225Z,967.20
2018-07-02T09:40:12.120Z,967.20
2018-07-02T09:41:12.108Z,967.21
2018-07-02T09:42:12.043Z,967.26
2018-07-02T09:43:11.996Z,967.29
2018-07-02T09:44:11.956Z,967.31
2018-07-02T09:45:11.971Z,967.31
2018-07-02T09:46:11.876Z,967.30
2018-07-02T09:47:11.876Z,967.30
2018-07-02T09:48:11.800Z,967.32
2018-07-02T09:49:11.757Z,967.29
2018-07-02T09:50:11.717Z,967.30
2018-07-02T09:51:11.676Z,967.30
2018-07-02T09:52:11.670Z,967.31
2018-07-02T09:53:11.595Z,967.32
2018-07-02T09:54:11.558Z,967.28
2018-07-02T09:55:11.518Z,967.27
2018-07-02T09:56:11.475Z,967.29
2018-07-02T09:57:11.476Z,967.30
2018-07-02T09:58:11.403Z,967.26
2018-07-02T09:59:11.359Z,967.27
2018-07-02T10:00:11.321Z,967.27
2018-07-02T10:01:11.279Z,967.27
2018-07-02T10:02:11.276Z,967.26
2018-07-02T10:03:11.235Z,967.25
2018-07-02T10:04:11.168Z,967.24
2018-07-02T10:05:11.120Z,967.21
2018-07-02T10:06:11.082Z,967.16
2018-07-02T10:07:11.042Z,967.19
2018-07-02T10:08:11.055Z,967.18
2018-07-02T10:09:10.968Z,967.18
2018-07-02T10:10:10.980Z,967.22
2018-07-02T10:11:10.887Z,967.21
2018-07-02T10:12:10.856Z,967.23
2018-07-02T10:13:10.842Z,967.21
2018-07-02T10:14:10.771Z,967.22
2018-07-02T10:15:10.732Z,967.24
2018-07-02T10:16:10.693Z,967.21
2018-07-02T10:17:10.689Z,967.23
2018-07-02T10:18:10.615Z,967.19
2018-07-02T10:19:10.612Z,967.23
2018-07-02T10:20:10.570Z,967.18
2018-07-02T10:21:10.501Z,967.17
2018-07-02T10:22:10.465Z,967.15
2018-07-02T10:23:10.424Z,967.16
2018-07-02T10:24:10.383Z,967.08
2018-07-02T10:25:10.384Z,967.11
2018-07-02T10:26:10.307Z,967.09
2018-07-02T10:27:10.303Z,967.10
2018-07-02T10:28:10.229Z,967.11
2018-07-02T10:29:10.293Z,967.13
2018-07-02T10:30:10.154Z,967.16
2018-07-02T10:31:10.145Z,967.08
2018-07-02T10:32:10.117Z,967.05
2018-07-02T10:33:10.065Z,966.98
2018-07-02T10:34:09.996Z,966.93
2018-07-02T10:35:09.956Z,966.95
2018-07-02T10:36:09.918Z,966.96
2018-07-02T10:37:09.878Z,966.94
2018-07-02T10:38:09.873Z,967.00
2018-07-02T10:39:09.799Z,967.01
2018-07-02T10:40:09.763Z,966.99
2018-07-02T10:41:09.731Z,966.98
2018-07-02T10:42:09.685Z,966.98
2018-07-02T10:43:09.687Z,966.95
2018-07-02T10:44:09.608Z,966.99
2018-07-02T10:45:09.570Z,966.94
2018-07-02T10:46:09.532Z,966.93
2018-07-02T10:47:09.490Z,966.97
2018-07-02T10:48:09.486Z,966.99
2018-07-02T10:49:09.418Z,966.98
2018-07-02T10:50:09.378Z,967.06
2018-07-02T10:51:09.339Z,967.07
2018-07-02T10:52:09.302Z,967.14
2018-07-02T10:53:09.336Z,967.15
2018-07-02T10:54:09.226Z,967.11
2018-07-02T10:55:09.187Z,967.12
2018-07-02T10:56:09.150Z,967.08
2018-07-02T10:57:09.110Z,967.10
2018-07-02T10:58:09.115Z,967.08
2018-07-02T10:59:09.036Z,967.14
2018-07-02T11:00:08.995Z,967.14
2018-07-02T11:01:08.962Z,967.12
2018-07-02T11:02:08.926Z,967.14
2018-07-02T11:03:08.916Z,967.12
2018-07-02T11:04:08.848Z,967.17
2018-07-02T11:05:08.810Z,967.17
2018-07-02T11:06:08.772Z,967.11
2018-07-02T11:07:08.734Z,967.15
2018-07-02T11:08:08.726Z,967.12
2018-07-02T11:09:08.657Z,967.11
2018-07-02T11:10:08.619Z,967.09
2018-07-02T11:11:08.594Z,967.08
2018-07-02T11:12:08.552Z,967.08
2018-07-02T11:13:08.540Z,967.00
2018-07-02T11:14:08.471Z,967.00
2018-07-02T11:15:08.431Z,966.99
2018-07-02T11:16:08.437Z,966.93
2018-07-02T11:17:08.402Z,966.91
2018-07-02T11:18:08.320Z,967.01
2018-07-02T11:19:08.284Z,966.99
2018-07-02T11:20:08.248Z,966.98
2018-07-02T11:21:08.250Z,967.02
2018-07-02T11:22:08.175Z,967.01
2018-07-02T11:23:08.136Z,967.06
2018-07-02T11:24:08.109Z,967.02
2018-07-02T11:25:08.082Z,967.06
2018-07-02T11:26:08.065Z,967.02
2018-07-02T11:27:07.987Z,967.00
2018-07-02T11:28:07.952Z,966.95
2018-07-02T11:29:07.913Z,966.90
2018-07-02T11:30:07.876Z,966.95
2018-07-02T11:31:07.886Z,966.93
2018-07-02T11:32:07.808Z,966.92
2018-07-02T11:33:07.767Z,966.90
2018-07-02T11:34:07.731Z,966.92
2018-07-02T11:35:07.693Z,966.94
2018-07-02T11:36:07.687Z,966.91
2018-07-02T11:37:07.620Z,966.90
2018-07-02T11:38:07.582Z,966.92
2018-07-02T11:39:07.553Z,966.85
2018-07-02T11:40:07.511Z,966.82
2018-07-02T11:41:07.503Z,966.79
2018-07-02T11:42:07.437Z,966.81
2018-07-02T11:43:07.396Z,966.82
2018-07-02T11:44:07.381Z,966.78
2018-07-02T11:45:07.368Z,966.76
2018-07-02T11:46:07.286Z,966.72
2018-07-02T11:47:07.251Z,966.69
2018-07-02T11:48:07.213Z,966.68
2018-07-02T11:49:07.179Z,966.65
2018-07-02T11:50:07.172Z,966.65
2018-07-02T11:51:07.143Z,966.66
2018-07-02T11:52:07.065Z,966.64
2018-07-02T11:53:07.028Z,966.64
2018-07-02T11:54:06.995Z,966.64
2018-07-02T11:55:06.961Z,966.58
2018-07-02T11:56:06.968Z,966.59
2018-07-02T11:57:06.879Z,966.57
2018-07-02T11:58:06.845Z,966.59
2018-07-02T11:59:06.808Z,966.59
2018-07-02T12:00:06.772Z,966.55
2018-07-02T12:01:06.766Z,966.59
2018-07-02T12:02:06.731Z,966.57
2018-07-02T12:03:06.662Z,966.56
2018-07-02T12:04:06.632Z,966.56
2018-07-02T12:05:06.590Z,966.58
2018-07-02T12:06:06.551Z,966.57
2018-07-02T12:07:06.550Z,966.61
2018-07-02T12:08:06.481Z,966.60
2018-07-02T12:09:06.478Z,966.63
2018-07-02T12:10:06.445Z,966.61
2018-07-02T12:11:06.373Z,966.65
2018-07-02T12:12:06.334Z,966.65
2018-07-02T12:13:06.301Z,966.64
2018-07-02T12:14:06.259Z,966.63
2018-07-02T12:15:06.256Z,966.60
2018-07-02T12:16:06.227Z,966.62
2018-07-02T12:17:06.155Z,966.67
2018-07-02T12:18:06.152Z,966.66
2018-07-02T12:19:06.081Z,966.68
2018-07-02T12:20:06.045Z,966.61
2018-07-02T12:21:06.041Z,966.58
2018-07-02T12:22:05.970Z,966.58
2018-07-02T12:23:05.936Z,966.59
2018-07-02T12:24:05.908Z,966.58
2018-07-02T12:25:05.864Z,966.59
2018-07-02T12:26:05.889Z,966.59
2018-07-02T12:27:05.790Z,966.53
2018-07-02T12:28:05.755Z,966.53